createdAt,value
2019-05-11T00:00:19.182Z,8.61
2019-05-11T00:01:19.159Z,8.59
2019-05-11T00:02:19.128Z,8.66
2019-05-11T00:03:19.086Z,8.70
2019-05-11T00:04:19.060Z,8.62
2019-05-11T00:05:18.994Z,8.62
2019-05-11T00:06:19.049Z,8.53
2019-05-11T00:07:18.943Z,8.47
2019-05-11T00:08:18.917Z,8.41
2019-05-11T00:09:18.859Z,8.34
2019-05-11T00:10:18.812Z,8.26
2019-05-11T00:11:18.788Z,8.18
2019-05-11T00:12:18.738Z,8.19
2019-05-11T00:13:18.686Z,8.08
2019-05-11T00:14:18.655Z,8.07
2019-05-11T00:15:18.626Z,8.01
2019-05-11T00:16:19.244Z,8.07
2019-05-11T00:17:18.618Z,8.16
2019-05-11T00:18:18.501Z,8.11
2019-05-11T00:19:18.481Z,8.05
2019-05-11T00:20:18.435Z,7.87
2019-05-11T00:21:18.384Z,7.95
2019-05-11T00:22:18.406Z,7.97
2019-05-11T00:23:18.320Z,7.75
2019-05-11T00:24:18.296Z,7.80
2019-05-11T00:25:18.340Z,7.77
2019-05-11T00:26:18.257Z,7.86
2019-05-11T00:27:18.217Z,7.75
2019-05-11T00:28:18.132Z,7.72
2019-05-11T00:29:18.120Z,7.79
2019-05-11T00:30:18.060Z,7.86
2019-05-11T00:31:17.997Z,7.90
2019-05-11T00:32:18.005Z,7.79
2019-05-11T00:33:17.926Z,7.77
2019-05-11T00:34:17.898Z,7.79
2019-05-11T00:35:17.926Z,7.93
2019-05-11T00:36:17.868Z,7.95
2019-05-11T00:37:17.798Z,7.86
2019-05-11T00:38:17.762Z,8.04
2019-05-11T00:39:17.738Z,7.93
2019-05-11T00:40:17.664Z,7.95
2019-05-11T00:41:17.617Z,7.92
2019-05-11T00:42:23.993Z,7.93
2019-05-11T00:43:17.551Z,7.97
2019-05-11T00:45:14.381Z,8.01
2019-05-11T00:46:11.110Z,8.01
2019-05-11T00:47:11.057Z,7.90
2019-05-11T00:48:11.118Z,7.87
2019-05-11T00:49:11.029Z,7.75
2019-05-11T00:50:16.255Z,7.75
2019-05-11T00:51:11.140Z,7.72
2019-05-11T00:53:04.487Z,7.60
2019-05-11T00:54:04.480Z,7.67
2019-05-11T00:55:04.388Z,7.63
2019-05-11T00:56:04.357Z,7.69
2019-05-11T00:57:04.291Z,7.61
2019-05-11T00:58:04.290Z,7.63
2019-05-11T00:59:04.224Z,7.64
2019-05-11T01:00:04.176Z,7.61
2019-05-11T01:01:04.147Z,7.61
2019-05-11T01:02:04.082Z,7.74
2019-05-11T01:03:04.042Z,7.74
2019-05-11T01:04:04.062Z,7.83
2019-05-11T01:05:04.032Z,7.77
2019-05-11T01:06:03.953Z,7.93
2019-05-11T01:07:03.936Z,7.87
2019-05-11T01:08:03.854Z,7.86
2019-05-11T01:09:03.834Z,7.75
2019-05-11T01:10:03.770Z,7.86
2019-05-11T01:11:03.745Z,7.79
2019-05-11T01:12:03.702Z,7.77
2019-05-11T01:13:03.671Z,7.83
2019-05-11T01:14:03.652Z,7.68
2019-05-11T01:15:03.597Z,7.75
2019-05-11T01:16:03.572Z,7.75
2019-05-11T01:17:03.518Z,7.74
2019-05-11T01:18:03.490Z,7.75
2019-05-11T01:19:03.479Z,7.68
2019-05-11T01:20:03.408Z,7.90
2019-05-11T01:21:03.412Z,7.90
2019-05-11T01:22:03.313Z,7.86
2019-05-11T01:23:03.369Z,7.93
2019-05-11T01:24:03.279Z,7.95
2019-05-11T01:25:03.212Z,7.93
2019-05-11T01:26:03.169Z,7.95
2019-05-11T01:27:03.166Z,7.93
2019-05-11T01:28:03.116Z,7.97
2019-05-11T01:29:03.111Z,8.08
2019-05-11T01:30:03.044Z,7.98
2019-05-11T01:31:03.025Z,7.92
2019-05-11T01:32:02.945Z,8.02
2019-05-11T01:33:02.890Z,7.92
2019-05-11T01:34:02.928Z,7.80
2019-05-11T01:35:02.846Z,7.79
2019-05-11T01:36:02.800Z,7.71
2019-05-11T01:37:02.760Z,7.68
2019-05-11T01:38:02.807Z,7.79
2019-05-11T01:39:02.674Z,7.68
2019-05-11T01:40:02.631Z,7.72
2019-05-11T01:41:02.657Z,7.77
2019-05-11T01:42:02.606Z,7.68
2019-05-11T01:43:02.527Z,7.74
2019-05-11T01:44:02.512Z,7.69
2019-05-11T01:45:02.452Z,7.63
2019-05-11T01:46:02.454Z,7.58
2019-05-11T01:47:02.378Z,7.60
2019-05-11T01:48:02.335Z,7.63
2019-05-11T01:49:02.323Z,7.60
2019-05-11T01:50:02.325Z,7.58
2019-05-11T01:51:02.244Z,7.67
2019-05-11T01:52:02.193Z,7.74
2019-05-11T01:53:02.177Z,7.77
2019-05-11T01:54:02.092Z,7.75
2019-05-11T01:55:02.090Z,7.77
2019-05-11T01:56:02.040Z,7.74
2019-05-11T01:57:02.001Z,7.74
2019-05-11T01:58:02.061Z,7.68
2019-05-11T01:59:01.980Z,7.77
2019-05-11T02:00:01.901Z,7.77
2019-05-11T02:01:01.879Z,7.64
2019-05-11T02:02:01.841Z,7.68
2019-05-11T02:03:01.773Z,7.71
2019-05-11T02:04:01.737Z,7.68
2019-05-11T02:05:01.723Z,7.69
2019-05-11T02:06:01.707Z,7.69
2019-05-11T02:07:01.702Z,7.72
2019-05-11T02:08:01.627Z,7.71
2019-05-11T02:09:01.574Z,7.71
2019-05-11T02:10:01.517Z,7.85
2019-05-11T02:11:14.929Z,7.77
2019-05-11T02:12:01.447Z,7.85
2019-05-11T02:13:01.371Z,7.87
2019-05-11T02:14:01.366Z,7.86
2019-05-11T02:15:01.364Z,7.74
2019-05-11T02:16:01.286Z,7.69
2019-05-11T02:17:01.260Z,7.74
2019-05-11T02:18:01.220Z,7.82
2019-05-11T02:19:01.182Z,7.80
2019-05-11T02:20:01.206Z,7.69
2019-05-11T02:21:01.135Z,7.77
2019-05-11T02:22:01.103Z,7.86
2019-05-11T02:23:01.047Z,7.82
2019-05-11T02:24:00.968Z,7.90
2019-05-11T02:25:00.961Z,7.87
2019-05-11T02:26:00.909Z,7.86
2019-05-11T02:27:00.885Z,7.89
2019-05-11T02:28:00.859Z,7.90
2019-05-11T02:29:00.838Z,7.90
2019-05-11T02:30:00.811Z,7.92
2019-05-11T02:31:00.736Z,7.93
2019-05-11T02:32:00.678Z,7.92
2019-05-11T02:33:00.630Z,7.98
2019-05-11T02:34:00.602Z,7.92
2019-05-11T02:35:00.546Z,8.01
2019-05-11T02:36:00.513Z,7.89
2019-05-11T02:37:00.469Z,8.01
2019-05-11T02:38:00.476Z,7.90
2019-05-11T02:39:00.387Z,8.00
2019-05-11T02:40:12.689Z,8.04
2019-05-11T02:41:03.843Z,7.98
2019-05-11T02:42:54.007Z,8.15
2019-05-11T02:43:53.877Z,8.18
2019-05-11T02:45:48.586Z,8.19
2019-05-11T02:46:49.178Z,8.16
2019-05-11T02:48:42.041Z,8.18
2019-05-11T02:49:41.910Z,8.20
2019-05-11T02:51:36.646Z,8.26
2019-05-11T02:52:36.521Z,8.28
2019-05-11T02:54:30.082Z,8.25
2019-05-11T02:55:29.989Z,8.23
2019-05-11T02:57:24.643Z,8.26
2019-05-11T02:58:24.663Z,8.22
2019-05-11T03:00:17.612Z,8.34
2019-05-11T03:01:17.561Z,8.23
2019-05-11T03:03:11.107Z,8.36
2019-05-11T03:04:11.057Z,8.40
2019-05-11T03:06:04.572Z,8.38
2019-05-11T03:07:04.462Z,8.38
2019-05-11T03:08:59.028Z,8.38
2019-05-11T03:09:58.957Z,8.52
2019-05-11T03:11:55.428Z,8.36
2019-05-11T03:12:51.948Z,8.40
2019-05-11T03:14:45.449Z,8.43
2019-05-11T03:15:45.371Z,8.44
2019-05-11T03:17:38.908Z,8.43
2019-05-11T03:18:38.919Z,8.48
2019-05-11T03:20:34.147Z,8.53
2019-05-11T03:21:33.341Z,8.50
2019-05-11T03:23:26.338Z,8.50
2019-05-11T03:24:26.272Z,8.45
2019-05-11T03:26:19.821Z,8.53
2019-05-11T03:27:19.736Z,8.48
2019-05-11T03:29:14.279Z,8.44
2019-05-11T03:30:14.241Z,8.45
2019-05-11T03:32:07.260Z,8.50
2019-05-11T03:33:07.200Z,8.53
2019-05-11T03:35:01.780Z,8.50
2019-05-11T03:36:01.693Z,8.52
2019-05-11T03:37:01.671Z,8.48
2019-05-11T03:38:01.633Z,8.52
2019-05-11T03:39:01.571Z,8.52
2019-05-11T03:40:01.543Z,8.52
2019-05-11T03:41:01.494Z,8.53
2019-05-11T03:42:14.181Z,8.50
2019-05-11T03:43:01.416Z,8.59
2019-05-11T03:44:01.401Z,8.65
2019-05-11T03:45:01.411Z,8.62
2019-05-11T03:46:01.291Z,8.55
2019-05-11T03:47:01.282Z,8.58
2019-05-11T03:48:01.242Z,8.58
2019-05-11T03:49:01.182Z,8.68
2019-05-11T03:50:01.145Z,8.65
2019-05-11T03:51:01.113Z,8.58
2019-05-11T03:52:01.067Z,8.62
2019-05-11T03:53:01.072Z,8.65
2019-05-11T03:54:01.011Z,8.61
2019-05-11T03:55:00.969Z,8.65
2019-05-11T03:56:00.916Z,8.71
2019-05-11T03:57:00.896Z,8.66
2019-05-11T03:58:00.852Z,8.77
2019-05-11T03:59:00.810Z,8.77
2019-05-11T04:00:00.764Z,8.79
2019-05-11T04:01:00.736Z,8.79
2019-05-11T04:02:00.752Z,8.86
2019-05-11T04:03:00.650Z,8.86
2019-05-11T04:04:00.621Z,8.86
2019-05-11T04:05:00.593Z,8.86
2019-05-11T04:06:00.543Z,8.91
2019-05-11T04:07:00.550Z,8.87
2019-05-11T04:08:00.481Z,8.86
2019-05-11T04:09:00.450Z,8.95
2019-05-11T04:10:00.437Z,8.81
2019-05-11T04:11:00.369Z,8.95
2019-05-11T04:12:00.353Z,8.81
2019-05-11T04:13:00.317Z,8.87
2019-05-11T04:14:00.262Z,8.92
2019-05-11T04:15:00.220Z,8.87
2019-05-11T04:16:00.195Z,8.89
2019-05-11T04:17:00.133Z,8.91
2019-05-11T04:18:00.102Z,8.89
2019-05-11T04:19:00.075Z,8.91
2019-05-11T04:20:00.028Z,8.95
2019-05-11T04:20:59.994Z,8.92
2019-05-11T04:21:59.962Z,8.84
2019-05-11T04:22:59.896Z,8.89
2019-05-11T04:23:59.873Z,8.89
2019-05-11T04:24:59.832Z,8.95
2019-05-11T04:25:59.796Z,8.83
2019-05-11T04:26:59.756Z,8.94
2019-05-11T04:27:59.723Z,8.91
2019-05-11T04:28:59.683Z,8.87
2019-05-11T04:29:59.657Z,8.91
2019-05-11T04:30:59.602Z,8.84
2019-05-11T04:31:59.575Z,8.96
2019-05-11T04:32:59.542Z,9.01
2019-05-11T04:33:59.526Z,8.96
2019-05-11T04:34:59.461Z,8.95
2019-05-11T04:35:59.416Z,8.96
2019-05-11T04:36:59.384Z,9.01
2019-05-11T04:37:59.390Z,9.08
2019-05-11T04:38:59.312Z,9.10
2019-05-11T04:39:59.293Z,9.11
2019-05-11T04:40:59.246Z,9.15
2019-05-11T04:41:59.240Z,9.14
2019-05-11T04:42:59.175Z,9.14
2019-05-11T04:43:59.122Z,9.13
2019-05-11T04:44:59.134Z,9.10
2019-05-11T04:45:59.063Z,9.17
2019-05-11T04:46:59.099Z,9.20
2019-05-11T04:47:59.029Z,9.18
2019-05-11T04:48:58.953Z,9.20
2019-05-11T04:49:58.914Z,9.28
2019-05-11T04:50:58.879Z,9.28
2019-05-11T04:51:58.856Z,9.21
2019-05-11T04:52:58.811Z,9.18
2019-05-11T04:53:58.734Z,9.24
2019-05-11T04:54:58.708Z,9.32
2019-05-11T04:55:58.666Z,9.28
2019-05-11T04:56:58.625Z,9.36
2019-05-11T04:57:58.595Z,9.29
2019-05-11T04:58:58.559Z,9.32
2019-05-11T04:59:58.513Z,9.33
2019-05-11T05:00:58.486Z,9.36
2019-05-11T05:01:58.446Z,9.26
2019-05-11T05:02:58.404Z,9.28
2019-05-11T05:04:13.471Z,9.32
2019-05-11T05:04:58.345Z,9.38
2019-05-11T05:06:21.286Z,9.33
2019-05-11T05:07:00.133Z,9.36
2019-05-11T05:08:09.103Z,9.33
2019-05-11T05:09:03.525Z,9.33
2019-05-11T05:09:58.161Z,9.33
2019-05-11T05:11:00.545Z,9.29
2019-05-11T05:11:58.095Z,9.32
2019-05-11T05:13:10.193Z,9.35
2019-05-11T05:14:01.901Z,9.42
2019-05-11T05:14:57.974Z,9.39
2019-05-11T05:15:57.955Z,9.39
2019-05-11T05:16:57.901Z,9.42
2019-05-11T05:17:57.896Z,9.33
2019-05-11T05:18:57.840Z,9.32
2019-05-11T05:19:57.854Z,9.33
2019-05-11T05:20:57.749Z,9.38
2019-05-11T05:21:57.732Z,9.39
2019-05-11T05:22:57.683Z,9.38
2019-05-11T05:23:57.644Z,9.42
2019-05-11T05:24:57.603Z,9.43
2019-05-11T05:25:57.563Z,9.40
2019-05-11T05:26:57.554Z,9.39
2019-05-11T05:27:57.514Z,9.36
2019-05-11T05:28:57.443Z,9.47
2019-05-11T05:29:57.412Z,9.48
2019-05-11T05:30:57.372Z,9.47
2019-05-11T05:31:57.333Z,9.51
2019-05-11T05:32:57.294Z,9.61
2019-05-11T05:34:01.036Z,9.56
2019-05-11T05:34:57.223Z,9.61
2019-05-11T05:35:57.203Z,9.58
2019-05-11T05:36:57.156Z,9.69
2019-05-11T05:37:57.110Z,9.71
2019-05-11T05:38:57.089Z,9.68
2019-05-11T05:39:57.080Z,9.79
2019-05-11T05:40:57.088Z,9.84
2019-05-11T05:41:57.744Z,9.86
2019-05-11T05:42:56.963Z,9.89
2019-05-11T05:43:56.917Z,10.01
2019-05-11T05:44:56.878Z,9.97
2019-05-11T05:45:56.846Z,9.93
2019-05-11T05:46:56.780Z,9.97
2019-05-11T05:47:56.800Z,9.94
2019-05-11T05:48:56.775Z,10.02
2019-05-11T05:49:56.705Z,10.11
2019-05-11T05:50:56.631Z,10.12
2019-05-11T05:51:58.449Z,10.14
2019-05-11T05:52:56.580Z,10.15
2019-05-11T05:53:56.518Z,10.23
2019-05-11T05:54:56.487Z,10.20
2019-05-11T05:55:56.440Z,10.20
2019-05-11T05:56:56.417Z,10.27
2019-05-11T05:57:56.381Z,10.20
2019-05-11T05:58:56.332Z,10.25
2019-05-11T05:59:56.314Z,10.23
2019-05-11T06:00:56.258Z,10.23
2019-05-11T06:01:56.226Z,10.33
2019-05-11T06:02:56.191Z,10.29
2019-05-11T06:03:56.152Z,10.29
2019-05-11T06:04:56.121Z,10.29
2019-05-11T06:05:56.091Z,10.38
2019-05-11T06:06:56.068Z,10.32
2019-05-11T06:07:56.001Z,10.45
2019-05-11T06:08:55.969Z,10.41
2019-05-11T06:09:55.928Z,10.40
2019-05-11T06:10:55.908Z,10.40
2019-05-11T06:11:55.879Z,10.25
2019-05-11T06:12:55.819Z,10.25
2019-05-11T06:13:55.826Z,10.17
2019-05-11T06:14:55.769Z,10.18
2019-05-11T06:15:55.768Z,10.25
2019-05-11T06:16:55.687Z,10.33
2019-05-11T06:17:55.713Z,10.27
2019-05-11T06:18:55.627Z,10.34
2019-05-11T06:19:55.593Z,10.32
2019-05-11T06:20:55.583Z,10.41
2019-05-11T06:21:55.515Z,10.48
2019-05-11T06:22:55.500Z,10.45
2019-05-11T06:23:55.456Z,10.52
2019-05-11T06:24:55.406Z,10.52
2019-05-11T06:25:55.370Z,10.40
2019-05-11T06:26:55.316Z,10.42
2019-05-11T06:27:55.298Z,10.51
2019-05-11T06:28:55.271Z,10.51
2019-05-11T06:29:55.205Z,10.45
2019-05-11T06:30:55.164Z,10.53
2019-05-11T06:31:55.146Z,10.51
2019-05-11T06:32:55.107Z,10.44
2019-05-11T06:33:55.072Z,10.51
2019-05-11T06:34:55.033Z,10.48
2019-05-11T06:35:54.981Z,10.45
2019-05-11T06:36:54.950Z,10.45
2019-05-11T06:37:54.955Z,10.44
2019-05-11T06:38:54.875Z,10.41
2019-05-11T06:39:54.835Z,10.44
2019-05-11T06:40:54.822Z,10.60
2019-05-11T06:41:54.810Z,10.56
2019-05-11T06:42:54.722Z,10.63
2019-05-11T06:44:01.777Z,10.61
2019-05-11T06:44:54.659Z,10.67
2019-05-11T06:45:54.616Z,10.67
2019-05-11T06:46:54.654Z,10.70
2019-05-11T06:47:54.563Z,10.66
2019-05-11T06:48:54.519Z,10.67
2019-05-11T06:49:54.481Z,10.71
2019-05-11T06:50:54.527Z,10.73
2019-05-11T06:51:54.409Z,10.68
2019-05-11T06:52:54.379Z,10.73
2019-05-11T06:53:54.353Z,10.85
2019-05-11T06:54:54.338Z,10.67
2019-05-11T06:55:54.283Z,10.73
2019-05-11T06:56:54.258Z,10.64
2019-05-11T06:57:54.216Z,10.76
2019-05-11T06:58:54.148Z,10.78
2019-05-11T06:59:54.121Z,10.84
2019-05-11T07:00:54.092Z,10.76
2019-05-11T07:01:54.051Z,10.78
2019-05-11T07:02:54.008Z,10.68
2019-05-11T07:03:53.954Z,10.76
2019-05-11T07:04:53.916Z,10.64
2019-05-11T07:05:53.897Z,10.70
2019-05-11T07:06:53.855Z,10.70
2019-05-11T07:07:57.224Z,10.68
2019-05-11T07:08:53.781Z,10.63
2019-05-11T07:09:53.753Z,10.56
2019-05-11T07:10:53.706Z,10.56
2019-05-11T07:11:53.700Z,10.48
2019-05-11T07:12:53.647Z,10.53
2019-05-11T07:13:53.593Z,10.51
2019-05-11T07:14:53.577Z,10.44
2019-05-11T07:15:53.547Z,10.55
2019-05-11T07:16:53.493Z,10.56
2019-05-11T07:17:53.477Z,10.60
2019-05-11T07:18:53.415Z,10.63
2019-05-11T07:19:53.394Z,10.60
2019-05-11T07:20:53.356Z,10.66
2019-05-11T07:21:53.318Z,10.70
2019-05-11T07:22:53.319Z,10.68
2019-05-11T07:23:53.231Z,10.66
2019-05-11T07:24:53.272Z,10.70
2019-05-11T07:25:53.181Z,10.74
2019-05-11T07:26:53.132Z,10.81
2019-05-11T07:27:53.099Z,10.86
2019-05-11T07:28:53.059Z,10.91
2019-05-11T07:29:53.101Z,10.96
2019-05-11T07:30:53.005Z,10.94
2019-05-11T07:31:52.972Z,10.94
2019-05-11T07:32:52.903Z,10.89
2019-05-11T07:33:52.885Z,10.79
2019-05-11T07:34:52.864Z,10.85
2019-05-11T07:35:52.794Z,10.85
2019-05-11T07:36:52.782Z,10.92
2019-05-11T07:37:52.805Z,10.94
2019-05-11T07:38:52.720Z,10.92
2019-05-11T07:39:52.699Z,11.00
2019-05-11T07:40:52.614Z,11.03
2019-05-11T07:41:52.628Z,10.89
2019-05-11T07:42:52.572Z,10.97
2019-05-11T07:43:52.506Z,10.89
2019-05-11T07:44:52.462Z,10.94
2019-05-11T07:45:52.436Z,10.96
2019-05-11T07:46:52.384Z,11.03
2019-05-11T07:47:52.367Z,11.09
2019-05-11T07:48:52.715Z,11.07
2019-05-11T07:49:52.301Z,11.18
2019-05-11T07:50:52.328Z,11.15
2019-05-11T07:51:52.219Z,11.24
2019-05-11T07:52:52.195Z,11.22
2019-05-11T07:53:52.180Z,11.39
2019-05-11T07:54:53.090Z,11.42
2019-05-11T07:55:52.082Z,11.52
2019-05-11T07:56:52.035Z,11.54
2019-05-11T07:57:52.019Z,11.51
2019-05-11T07:58:51.970Z,11.51
2019-05-11T07:59:51.927Z,11.60
2019-05-11T08:00:51.919Z,11.58
2019-05-11T08:01:51.892Z,11.55
2019-05-11T08:02:51.864Z,11.55
2019-05-11T08:03:51.799Z,11.49
2019-05-11T08:04:51.825Z,11.43
2019-05-11T08:05:51.712Z,11.32
2019-05-11T08:06:51.680Z,11.32
2019-05-11T08:07:51.728Z,11.25
2019-05-11T08:08:51.607Z,11.29
2019-05-11T08:09:51.559Z,11.17
2019-05-11T08:10:51.532Z,11.17
2019-05-11T08:11:51.512Z,11.10
2019-05-11T08:12:51.466Z,11.06
2019-05-11T08:13:51.425Z,11.07
2019-05-11T08:15:02.614Z,11.15
2019-05-11T08:15:51.341Z,11.19
2019-05-11T08:16:51.347Z,11.24
2019-05-11T08:17:51.272Z,11.14
2019-05-11T08:18:51.330Z,11.11
2019-05-11T08:19:51.249Z,11.11
2019-05-11T08:20:51.185Z,11.22
2019-05-11T08:21:51.148Z,11.17
2019-05-11T08:22:51.095Z,11.15
2019-05-11T08:23:51.071Z,11.18
2019-05-11T08:24:51.043Z,11.10
2019-05-11T08:25:54.271Z,11.09
2019-05-11T08:26:50.941Z,11.09
2019-05-11T08:27:50.907Z,11.18
2019-05-11T08:28:50.980Z,11.04
2019-05-11T08:29:50.834Z,11.11
2019-05-11T08:30:50.816Z,11.09
2019-05-11T08:31:50.814Z,11.18
2019-05-11T08:32:50.775Z,11.11
2019-05-11T08:33:50.754Z,11.17
2019-05-11T08:34:50.698Z,11.04
2019-05-11T08:35:50.610Z,11.03
2019-05-11T08:36:50.622Z,11.04
2019-05-11T08:37:50.543Z,11.15
2019-05-11T08:38:50.500Z,11.11
2019-05-11T08:39:50.494Z,11.18
2019-05-11T08:40:50.462Z,11.21
2019-05-11T08:41:50.395Z,11.24
2019-05-11T08:42:50.414Z,11.32
2019-05-11T08:43:50.478Z,11.40
2019-05-11T08:44:50.288Z,11.43
2019-05-11T08:45:50.318Z,11.44
2019-05-11T08:46:50.197Z,11.49
2019-05-11T08:47:50.176Z,11.49
2019-05-11T08:48:50.224Z,11.54
2019-05-11T08:49:50.203Z,11.54
2019-05-11T08:50:50.062Z,11.54
2019-05-11T08:51:50.051Z,11.42
2019-05-11T08:52:49.991Z,11.44
2019-05-11T08:53:49.934Z,11.57
2019-05-11T08:54:49.938Z,11.42
2019-05-11T08:55:49.910Z,11.32
2019-05-11T08:56:49.852Z,11.42
2019-05-11T08:57:49.960Z,11.43
2019-05-11T08:58:49.767Z,11.40
2019-05-11T08:59:49.803Z,11.40
2019-05-11T09:00:49.721Z,11.42
2019-05-11T09:01:49.680Z,11.42
2019-05-11T09:02:50.847Z,11.39
2019-05-11T09:03:49.730Z,11.44
2019-05-11T09:04:49.570Z,11.25
2019-05-11T09:05:49.526Z,11.27
2019-05-11T09:06:49.522Z,11.19
2019-05-11T09:07:49.440Z,11.18
2019-05-11T09:08:49.570Z,11.25
2019-05-11T09:09:49.366Z,11.22
2019-05-11T09:10:49.500Z,11.22
2019-05-11T09:11:49.341Z,11.28
2019-05-11T09:12:49.331Z,11.25
2019-05-11T09:13:49.212Z,11.18
2019-05-11T09:14:49.314Z,11.28
2019-05-11T09:15:49.549Z,11.25
2019-05-11T09:16:49.127Z,11.27
2019-05-11T09:17:49.062Z,11.27
2019-05-11T09:18:49.050Z,11.28
2019-05-11T09:19:49.015Z,11.39
2019-05-11T09:20:48.968Z,11.40
2019-05-11T09:21:48.948Z,11.44
2019-05-11T09:22:49.680Z,11.43
2019-05-11T09:23:48.861Z,11.42
2019-05-11T09:24:48.816Z,11.37
2019-05-11T09:25:48.825Z,11.39
2019-05-11T09:26:48.797Z,11.40
2019-05-11T09:27:48.711Z,11.39
2019-05-11T09:28:48.700Z,11.37
2019-05-11T09:29:48.702Z,11.42
2019-05-11T09:30:48.597Z,11.44
2019-05-11T09:31:48.807Z,11.52
2019-05-11T09:32:48.534Z,11.54
2019-05-11T09:33:48.503Z,11.72
2019-05-11T09:34:48.609Z,11.55
2019-05-11T09:35:53.116Z,11.51
2019-05-11T09:36:48.383Z,11.57
2019-05-11T09:37:48.567Z,11.62
2019-05-11T09:38:49.173Z,11.55
2019-05-11T09:39:48.261Z,11.44
2019-05-11T09:40:48.220Z,11.42
2019-05-11T09:41:48.792Z,11.46
2019-05-11T09:42:48.188Z,11.29
2019-05-11T09:43:48.472Z,11.27
2019-05-11T09:44:48.630Z,11.28
2019-05-11T09:45:49.272Z,11.40
2019-05-11T09:46:48.027Z,11.39
2019-05-11T09:47:47.970Z,11.40
2019-05-11T09:48:48.483Z,11.36
2019-05-11T09:49:50.858Z,11.40
2019-05-11T09:50:48.215Z,11.40
2019-05-11T09:51:48.345Z,11.36
2019-05-11T09:52:48.887Z,11.36
2019-05-11T09:53:48.444Z,11.39
2019-05-11T09:54:48.692Z,11.39
2019-05-11T09:55:48.227Z,11.36
2019-05-11T09:56:48.611Z,11.49
2019-05-11T09:57:48.718Z,11.51
2019-05-11T09:58:48.123Z,11.49
2019-05-11T09:59:47.893Z,11.47
2019-05-11T10:00:48.150Z,11.51
2019-05-11T10:01:48.305Z,11.44
2019-05-11T10:02:48.761Z,11.49
2019-05-11T10:03:48.112Z,11.47
2019-05-11T10:04:48.380Z,11.57
2019-05-11T10:05:48.706Z,11.58
2019-05-11T10:06:48.083Z,11.67
2019-05-11T10:07:48.496Z,11.57
2019-05-11T10:08:48.677Z,11.73
2019-05-11T10:09:47.880Z,11.62
2019-05-11T10:10:48.807Z,11.51
2019-05-11T10:11:48.023Z,11.62
2019-05-11T10:12:48.579Z,11.67
2019-05-11T10:13:47.719Z,11.75
2019-05-11T10:14:48.569Z,11.88
2019-05-11T10:16:00.915Z,11.76
2019-05-11T10:16:48.995Z,11.86
2019-05-11T10:17:48.258Z,12.04
2019-05-11T10:18:49.247Z,12.16
2019-05-11T10:19:49.479Z,12.23
2019-05-11T10:20:48.153Z,11.94
2019-05-11T10:21:48.660Z,12.04
2019-05-11T10:22:48.671Z,12.04
2019-05-11T10:23:48.830Z,11.94
2019-05-11T10:24:47.733Z,11.80
2019-05-11T10:25:48.100Z,11.73
2019-05-11T10:26:48.512Z,11.72
2019-05-11T10:27:48.601Z,11.79
2019-05-11T10:28:48.219Z,11.82
2019-05-11T10:29:48.344Z,11.88
2019-05-11T10:30:48.539Z,11.88
2019-05-11T10:31:48.041Z,11.79
2019-05-11T10:32:48.343Z,11.76
2019-05-11T10:33:48.658Z,11.67
2019-05-11T10:34:47.811Z,11.57
2019-05-11T10:35:48.180Z,11.69
2019-05-11T10:36:48.466Z,11.75
2019-05-11T10:37:47.760Z,11.78
2019-05-11T10:38:48.427Z,11.85
2019-05-11T10:39:46.064Z,11.96
2019-05-11T10:40:47.992Z,11.94
2019-05-11T10:41:48.018Z,12.05
2019-05-11T10:42:47.738Z,12.09
2019-05-11T10:43:45.975Z,12.10
2019-05-11T10:44:47.843Z,12.05
2019-05-11T10:45:48.241Z,12.02
2019-05-11T10:46:48.203Z,12.21
2019-05-11T10:47:45.793Z,12.10
2019-05-11T10:48:47.974Z,12.12
2019-05-11T10:49:45.711Z,12.14
2019-05-11T10:50:45.682Z,12.16
2019-05-11T10:51:45.623Z,12.12
2019-05-11T10:52:45.609Z,12.13
2019-05-11T10:53:48.454Z,12.19
2019-05-11T10:54:47.658Z,12.13
2019-05-11T10:55:47.807Z,12.17
2019-05-11T10:56:45.466Z,12.17
2019-05-11T10:57:45.435Z,12.20
2019-05-11T10:58:45.450Z,12.14
2019-05-11T10:59:45.410Z,12.27
2019-05-11T11:00:45.370Z,12.37
2019-05-11T11:01:45.327Z,12.45
2019-05-11T11:02:47.585Z,12.56
2019-05-11T11:03:45.343Z,12.68
2019-05-11T11:04:45.165Z,12.67
2019-05-11T11:05:45.148Z,12.39
2019-05-11T11:06:45.103Z,12.20
2019-05-11T11:07:45.125Z,12.24
2019-05-11T11:08:45.131Z,12.23
2019-05-11T11:09:45.031Z,12.21
2019-05-11T11:10:44.997Z,12.21
2019-05-11T11:11:44.933Z,12.14
2019-05-11T11:12:44.882Z,12.04
2019-05-11T11:13:44.842Z,12.23
2019-05-11T11:14:44.849Z,12.14
2019-05-11T11:15:44.762Z,11.94
2019-05-11T11:16:44.791Z,12.04
2019-05-11T11:17:44.708Z,12.02
2019-05-11T11:18:44.702Z,11.99
2019-05-11T11:19:44.606Z,12.13
2019-05-11T11:20:44.589Z,12.19
2019-05-11T11:21:44.568Z,12.12
2019-05-11T11:22:44.573Z,11.99
2019-05-11T11:23:44.476Z,11.94
2019-05-11T11:24:44.454Z,12.07
2019-05-11T11:25:44.419Z,11.96
2019-05-11T11:26:44.395Z,12.14
2019-05-11T11:27:44.352Z,12.12
2019-05-11T11:28:44.336Z,12.14
2019-05-11T11:29:44.293Z,12.17
2019-05-11T11:30:44.234Z,12.21
2019-05-11T11:31:44.193Z,12.37
2019-05-11T11:32:44.160Z,12.47
2019-05-11T11:33:44.153Z,12.38
2019-05-11T11:34:44.127Z,12.23
2019-05-11T11:35:44.034Z,12.38
2019-05-11T11:36:44.006Z,12.34
2019-05-11T11:37:43.981Z,12.32
2019-05-11T11:38:44.012Z,12.54
2019-05-11T11:39:43.896Z,12.52
2019-05-11T11:40:43.998Z,12.49
2019-05-11T11:41:43.848Z,12.52
2019-05-11T11:42:43.800Z,12.45
2019-05-11T11:43:43.760Z,12.47
2019-05-11T11:44:43.733Z,12.57
2019-05-11T11:45:43.680Z,12.49
2019-05-11T11:46:52.009Z,12.45
2019-05-11T11:47:43.603Z,12.21
2019-05-11T11:48:43.586Z,12.29
2019-05-11T11:49:43.537Z,12.23
2019-05-11T11:50:43.510Z,12.34
2019-05-11T11:51:43.472Z,12.38
2019-05-11T11:52:45.085Z,12.41
2019-05-11T11:53:43.506Z,12.45
2019-05-11T11:54:43.391Z,12.53
2019-05-11T11:55:43.352Z,12.53
2019-05-11T11:56:43.325Z,12.50
2019-05-11T11:57:43.277Z,12.41
2019-05-11T11:58:43.227Z,12.41
2019-05-11T11:59:43.247Z,12.46
2019-05-11T12:00:43.241Z,12.38
2019-05-11T12:01:43.194Z,12.29
2019-05-11T12:02:43.078Z,12.24
2019-05-11T12:03:43.065Z,12.29
2019-05-11T12:04:42.996Z,12.24
2019-05-11T12:05:43.004Z,12.31
2019-05-11T12:06:42.936Z,12.23
2019-05-11T12:07:42.992Z,12.28
2019-05-11T12:08:42.903Z,12.12
2019-05-11T12:09:42.835Z,12.20
2019-05-11T12:10:42.833Z,12.17
2019-05-11T12:11:42.746Z,12.21
2019-05-11T12:12:42.726Z,12.10
2019-05-11T12:13:42.687Z,12.13
2019-05-11T12:14:42.650Z,12.13
2019-05-11T12:15:42.608Z,12.20
2019-05-11T12:16:42.618Z,12.02
2019-05-11T12:17:42.553Z,12.05
2019-05-11T12:18:42.500Z,12.05
2019-05-11T12:19:42.522Z,12.05
2019-05-11T12:20:42.425Z,11.90
2019-05-11T12:21:42.406Z,11.95
2019-05-11T12:22:42.389Z,11.94
2019-05-11T12:23:42.340Z,11.90
2019-05-11T12:24:42.286Z,11.88
2019-05-11T12:25:42.245Z,12.12
2019-05-11T12:26:42.239Z,12.02
2019-05-11T12:27:42.183Z,12.19
2019-05-11T12:28:42.704Z,12.19
2019-05-11T12:29:42.197Z,12.27
2019-05-11T12:30:42.080Z,12.20
2019-05-11T12:31:42.100Z,12.23
2019-05-11T12:32:42.026Z,12.19
2019-05-11T12:33:41.971Z,12.20
2019-05-11T12:34:41.932Z,12.20
2019-05-11T12:35:41.923Z,12.21
2019-05-11T12:36:41.877Z,12.16
2019-05-11T12:37:41.868Z,12.23
2019-05-11T12:38:42.699Z,12.19
2019-05-11T12:39:41.786Z,12.21
2019-05-11T12:40:41.740Z,12.14
2019-05-11T12:41:41.697Z,12.16
2019-05-11T12:42:41.654Z,12.16
2019-05-11T12:43:41.602Z,12.32
2019-05-11T12:44:41.612Z,12.19
2019-05-11T12:45:41.553Z,12.27
2019-05-11T12:46:41.494Z,12.38
2019-05-11T12:47:41.466Z,12.47
2019-05-11T12:48:41.413Z,12.41
2019-05-11T12:49:41.406Z,12.52
2019-05-11T12:50:41.369Z,12.62
2019-05-11T12:51:41.323Z,12.75
2019-05-11T12:52:41.301Z,12.77
2019-05-11T12:53:41.278Z,12.86
2019-05-11T12:54:41.206Z,13.01
2019-05-11T12:55:41.187Z,12.87
2019-05-11T12:56:41.181Z,12.83
2019-05-11T12:57:41.140Z,12.87
2019-05-11T12:58:41.091Z,12.75
2019-05-11T12:59:41.049Z,12.70
2019-05-11T13:00:40.992Z,12.82
2019-05-11T13:01:40.988Z,12.77
2019-05-11T13:02:40.925Z,12.65
2019-05-11T13:03:40.951Z,12.67
2019-05-11T13:04:40.861Z,12.59
2019-05-11T13:05:40.847Z,12.39
2019-05-11T13:06:40.804Z,12.27
2019-05-11T13:07:40.796Z,12.34
2019-05-11T13:08:40.742Z,12.38
2019-05-11T13:09:40.695Z,12.41
2019-05-11T13:10:40.680Z,12.41
2019-05-11T13:11:40.636Z,12.38
2019-05-11T13:12:40.571Z,12.38
2019-05-11T13:13:40.559Z,12.54
2019-05-11T13:14:40.506Z,12.54
2019-05-11T13:15:40.473Z,12.38
2019-05-11T13:16:40.434Z,12.50
2019-05-11T13:17:41.157Z,12.42
2019-05-11T13:18:40.366Z,12.57
2019-05-11T13:19:40.329Z,12.59
2019-05-11T13:20:40.301Z,12.50
2019-05-11T13:21:40.266Z,12.50